createdAt,value
2022-07-29T00:01:45.031Z,1.65
2022-07-29T00:04:14.112Z,1.52
2022-07-29T00:06:42.686Z,1.65
2022-07-29T00:09:10.696Z,1.60
2022-07-29T00:11:38.540Z,1.50
2022-07-29T00:14:06.971Z,1.58
2022-07-29T00:16:34.917Z,2.10
2022-07-29T00:19:05.300Z,1.52
2022-07-29T00:21:35.763Z,1.60
2022-07-29T00:24:03.576Z,1.60
2022-07-29T00:26:32.698Z,1.58
2022-07-29T00:29:31.833Z,1.88
2022-07-29T00:31:49.114Z,2.08
2022-07-29T00:34:36.064Z,1.95
2022-07-29T00:37:03.910Z,1.77
2022-07-29T00:39:31.943Z,1.48
2022-07-29T00:41:59.821Z,1.70
2022-07-29T00:44:27.641Z,1.67
2022-07-29T00:46:55.554Z,1.63
2022-07-29T00:49:25.056Z,1.77
2022-07-29T00:51:53.428Z,1.40
2022-07-29T00:54:21.493Z,1.80
2022-07-29T00:56:49.384Z,1.70
2022-07-29T00:59:17.862Z,1.77
2022-07-29T01:01:45.718Z,1.83
2022-07-29T01:04:13.758Z,1.85
2022-07-29T01:06:45.092Z,1.80
2022-07-29T01:09:13.757Z,1.67
2022-07-29T01:11:42.016Z,1.80
2022-07-29T01:14:11.325Z,1.75
2022-07-29T01:16:44.654Z,1.83
2022-07-29T01:19:32.926Z,1.92
2022-07-29T01:22:15.718Z,1.98
2022-07-29T01:25:00.281Z,2.03
2022-07-29T01:27:41.388Z,2.30
2022-07-29T01:30:12.607Z,2.50
2022-07-29T01:32:48.887Z,2.08
2022-07-29T01:35:23.557Z,2.55
2022-07-29T01:37:57.643Z,2.30
2022-07-29T01:40:29.560Z,2.55
2022-07-29T01:43:00.676Z,3.13
2022-07-29T01:45:39.204Z,2.70
2022-07-29T01:48:14.041Z,3.10
2022-07-29T01:50:48.618Z,2.55
2022-07-29T01:53:27.503Z,2.17
2022-07-29T01:56:04.134Z,2.38
2022-07-29T01:58:34.450Z,2.10
2022-07-29T02:01:06.181Z,1.98
2022-07-29T02:03:37.730Z,2.10
2022-07-29T02:06:09.273Z,2.50
2022-07-29T02:08:38.924Z,2.30
2022-07-29T02:11:09.268Z,2.00
2022-07-29T02:13:39.382Z,2.00
2022-07-29T02:16:11.227Z,2.40
2022-07-29T02:18:42.937Z,2.17
2022-07-29T02:21:15.066Z,2.05
2022-07-29T02:23:51.568Z,2.42
2022-07-29T02:26:21.395Z,2.00
2022-07-29T02:28:52.043Z,2.13
2022-07-29T02:31:24.815Z,2.17
2022-07-29T02:33:54.726Z,2.03
2022-07-29T02:36:24.686Z,2.33
2022-07-29T02:38:54.333Z,2.60
2022-07-29T02:41:26.999Z,2.40
2022-07-29T02:43:59.057Z,2.53
2022-07-29T02:46:33.398Z,2.85
2022-07-29T02:49:06.381Z,2.60
2022-07-29T02:51:44.532Z,2.30
2022-07-29T02:54:20.486Z,2.50
2022-07-29T02:59:23.273Z,3.05
2022-07-29T03:01:54.289Z,3.00
2022-07-29T03:04:24.781Z,2.80
2022-07-29T03:06:54.089Z,2.70
2022-07-29T03:09:23.155Z,2.70
2022-07-29T03:11:51.982Z,2.58
2022-07-29T03:14:21.510Z,2.40
2022-07-29T03:16:50.603Z,2.95
2022-07-29T03:19:21.108Z,2.78
2022-07-29T03:21:49.067Z,3.67
2022-07-29T03:24:31.247Z,3.42
2022-07-29T03:26:59.719Z,3.15
2022-07-29T03:29:32.929Z,3.10
2022-07-29T03:32:03.335Z,2.90
2022-07-29T03:34:33.443Z,2.72
2022-07-29T03:37:01.306Z,2.53
2022-07-29T03:39:33.454Z,2.40
2022-07-29T03:42:03.020Z,2.50
2022-07-29T03:44:32.071Z,2.80
2022-07-29T03:47:02.973Z,2.80
2022-07-29T03:49:34.104Z,2.40
2022-07-29T03:52:02.587Z,2.63
2022-07-29T03:54:30.636Z,2.60
2022-07-29T03:57:01.570Z,2.28
2022-07-29T03:59:29.795Z,2.42
2022-07-29T04:01:59.172Z,2.63
2022-07-29T04:04:27.786Z,2.40
2022-07-29T04:06:58.363Z,2.50
2022-07-29T04:09:26.203Z,2.40
2022-07-29T04:12:02.171Z,2.50
2022-07-29T04:14:33.278Z,2.30
2022-07-29T04:17:01.250Z,2.80
2022-07-29T04:19:29.120Z,2.30
2022-07-29T04:21:58.621Z,2.30
2022-07-29T04:24:26.569Z,2.30
2022-07-29T04:26:54.460Z,2.00
2022-07-29T04:29:22.423Z,2.00
2022-07-29T04:31:50.341Z,2.17
2022-07-29T04:34:18.826Z,2.15
2022-07-29T04:36:47.429Z,2.20
2022-07-29T04:39:22.733Z,2.17
2022-07-29T04:44:28.428Z,1.92
2022-07-29T04:46:57.837Z,2.10
2022-07-29T04:49:25.814Z,2.10
2022-07-29T04:51:53.808Z,2.00
2022-07-29T04:54:23.041Z,2.15
2022-07-29T04:56:50.937Z,2.10
2022-07-29T04:59:18.749Z,2.00
2022-07-29T05:01:46.708Z,2.22
2022-07-29T05:04:14.873Z,2.17
2022-07-29T05:06:42.869Z,2.50
2022-07-29T05:09:10.718Z,2.30
2022-07-29T05:11:39.941Z,2.28
2022-07-29T05:14:07.770Z,2.00
2022-07-29T05:16:35.634Z,1.85
2022-07-29T05:19:03.526Z,2.38
2022-07-29T05:21:31.323Z,2.47
2022-07-29T05:23:59.152Z,2.20
2022-07-29T05:26:26.992Z,2.05
2022-07-29T05:28:56.162Z,2.45
2022-07-29T05:31:24.061Z,2.05
2022-07-29T05:33:51.986Z,1.92
2022-07-29T05:36:19.825Z,2.40
2022-07-29T05:38:47.773Z,3.30
2022-07-29T05:41:15.834Z,2.00
2022-07-29T05:43:43.662Z,1.90
2022-07-29T05:46:12.879Z,2.10
2022-07-29T05:48:40.892Z,1.90
2022-07-29T05:51:08.785Z,2.00
2022-07-29T05:53:36.608Z,2.15
2022-07-29T05:56:05.681Z,1.70
2022-07-29T05:58:33.599Z,1.90
2022-07-29T06:01:02.094Z,1.73
2022-07-29T06:03:31.305Z,1.90
2022-07-29T06:05:59.506Z,2.33
2022-07-29T06:08:27.384Z,1.90
2022-07-29T06:10:55.342Z,2.00
2022-07-29T06:13:23.186Z,2.20
2022-07-29T06:15:51.074Z,1.80
2022-07-29T06:18:19.156Z,2.35
2022-07-29T06:20:48.532Z,2.70
2022-07-29T06:23:16.690Z,2.67
2022-07-29T06:25:44.518Z,2.33
2022-07-29T06:28:12.649Z,2.33
2022-07-29T06:30:40.991Z,2.15
2022-07-29T06:33:09.309Z,2.13
2022-07-29T06:35:41.929Z,2.00
2022-07-29T06:38:30.137Z,1.88
2022-07-29T06:41:03.620Z,1.95
2022-07-29T06:43:34.816Z,2.00
2022-07-29T06:46:04.373Z,2.15
2022-07-29T06:48:32.554Z,1.90
2022-07-29T06:51:00.902Z,2.17
2022-07-29T06:53:30.835Z,2.78
2022-07-29T06:56:00.159Z,1.73
2022-07-29T06:58:28.303Z,1.75
2022-07-29T07:01:00.027Z,2.00
2022-07-29T07:03:27.967Z,2.30
2022-07-29T07:05:56.852Z,2.03
2022-07-29T07:08:25.557Z,1.88
2022-07-29T07:10:56.067Z,1.80
2022-07-29T07:13:25.266Z,1.90
2022-07-29T07:15:53.192Z,1.95
2022-07-29T07:18:21.438Z,2.15
2022-07-29T07:20:49.719Z,2.13
2022-07-29T07:23:17.895Z,1.80
2022-07-29T07:25:46.104Z,2.13
2022-07-29T07:28:15.417Z,1.80
2022-07-29T07:30:43.371Z,1.80
2022-07-29T07:33:11.269Z,1.80
2022-07-29T07:35:39.097Z,2.05
2022-07-29T07:38:07.731Z,2.10
2022-07-29T07:40:35.710Z,1.77
2022-07-29T07:43:03.490Z,1.80
2022-07-29T07:45:34.603Z,1.80
2022-07-29T07:48:02.559Z,1.88
2022-07-29T07:50:30.400Z,1.80
2022-07-29T07:52:59.539Z,1.70
2022-07-29T07:55:27.954Z,2.00
2022-07-29T07:57:56.840Z,3.67
2022-07-29T08:00:24.987Z,3.08
2022-07-29T08:02:54.487Z,2.00
2022-07-29T08:05:22.489Z,1.90
2022-07-29T08:07:50.554Z,1.77
2022-07-29T08:10:39.903Z,1.90
2022-07-29T08:13:09.251Z,1.73
2022-07-29T08:15:37.643Z,2.10
2022-07-29T08:18:08.878Z,2.08
2022-07-29T08:20:37.516Z,1.95
2022-07-29T08:23:07.006Z,1.90
2022-07-29T08:25:38.667Z,2.75
2022-07-29T08:28:08.365Z,2.83
2022-07-29T08:30:36.437Z,2.50
2022-07-29T08:33:06.089Z,2.10
2022-07-29T08:35:36.574Z,2.25
2022-07-29T08:38:05.342Z,2.25
2022-07-29T08:40:33.482Z,1.90
2022-07-29T08:43:06.810Z,2.08
2022-07-29T08:45:47.951Z,2.25
2022-07-29T08:48:19.599Z,2.10
2022-07-29T08:50:49.107Z,2.05
2022-07-29T08:53:18.783Z,2.00
2022-07-29T08:55:50.830Z,2.40
2022-07-29T08:58:22.872Z,2.10
2022-07-29T09:00:54.062Z,1.95
2022-07-29T09:03:27.760Z,1.90
2022-07-29T09:05:56.238Z,2.03
2022-07-29T09:08:25.246Z,2.05
2022-07-29T09:10:53.239Z,2.83
2022-07-29T09:13:21.394Z,2.22
2022-07-29T09:15:49.678Z,2.15
2022-07-29T09:18:36.978Z,2.45
2022-07-29T09:21:23.165Z,2.22
2022-07-29T09:24:07.962Z,2.35
2022-07-29T09:26:38.437Z,2.08
2022-07-29T09:29:14.530Z,1.80
2022-07-29T09:31:44.817Z,2.17
2022-07-29T09:34:16.428Z,2.20
2022-07-29T09:36:46.160Z,2.10
2022-07-29T09:39:15.308Z,2.45
2022-07-29T09:41:50.422Z,2.40
2022-07-29T09:44:18.643Z,2.15
2022-07-29T09:46:58.532Z,2.22
2022-07-29T09:49:28.544Z,2.00
2022-07-29T09:52:08.254Z,2.13
2022-07-29T09:54:41.202Z,1.77
2022-07-29T09:57:13.366Z,2.00
2022-07-29T09:59:50.507Z,2.50
2022-07-29T10:02:23.502Z,2.58
2022-07-29T10:04:53.543Z,2.20
2022-07-29T10:07:21.472Z,2.20
2022-07-29T10:09:55.366Z,2.30
2022-07-29T10:12:24.108Z,2.50
2022-07-29T10:14:52.801Z,2.95
2022-07-29T10:17:22.900Z,2.70
2022-07-29T10:19:51.530Z,2.20
2022-07-29T10:22:43.624Z,2.03
2022-07-29T10:25:10.597Z,2.58
2022-07-29T10:27:40.381Z,2.20
2022-07-29T10:30:09.172Z,2.30
2022-07-29T10:32:53.768Z,2.40
2022-07-29T10:35:42.051Z,2.50
2022-07-29T10:38:39.483Z,2.40
2022-07-29T10:41:32.390Z,2.53
2022-07-29T10:44:19.464Z,2.53
2022-07-29T10:46:51.459Z,2.58
2022-07-29T10:49:24.862Z,2.78
2022-07-29T10:51:55.825Z,2.80
2022-07-29T10:54:56.276Z,2.40
2022-07-29T10:57:53.971Z,2.72
2022-07-29T11:00:32.376Z,2.25
2022-07-29T11:03:04.755Z,2.22
2022-07-29T11:06:00.069Z,2.30
2022-07-29T11:08:28.835Z,2.63
2022-07-29T11:11:44.059Z,2.08
2022-07-29T11:14:26.559Z,2.20
2022-07-29T11:17:05.981Z,3.10
2022-07-29T11:19:35.963Z,2.33
2022-07-29T11:22:04.639Z,2.00
2022-07-29T11:24:34.865Z,1.70
2022-07-29T11:27:18.328Z,2.33
2022-07-29T11:29:54.576Z,1.85
2022-07-29T11:32:25.067Z,1.85
2022-07-29T11:35:17.292Z,2.10
2022-07-29T11:37:52.426Z,1.90
2022-07-29T11:40:23.754Z,2.00
2022-07-29T11:42:52.627Z,2.10
2022-07-29T11:45:48.237Z,2.00
2022-07-29T11:48:31.547Z,1.83
2022-07-29T11:51:01.448Z,2.00
2022-07-29T11:53:32.974Z,1.70
2022-07-29T11:58:50.804Z,1.73
2022-07-29T12:01:22.278Z,1.80
2022-07-29T12:04:03.977Z,2.10
2022-07-29T12:06:34.836Z,2.53
2022-07-29T12:07:02.363Z,1.77
2022-07-29T12:09:08.503Z,1.83
2022-07-29T12:11:42.626Z,1.70
2022-07-29T12:14:27.743Z,1.73
2022-07-29T12:16:58.090Z,1.90
2022-07-29T12:19:27.007Z,2.40
2022-07-29T12:21:59.482Z,1.95
2022-07-29T12:24:27.794Z,2.30
2022-07-29T12:26:57.144Z,2.47
2022-07-29T12:29:34.868Z,2.38
2022-07-29T12:32:14.667Z,2.05
2022-07-29T12:34:47.521Z,2.47
2022-07-29T12:37:15.520Z,2.00
2022-07-29T12:39:43.435Z,2.08
2022-07-29T12:42:15.053Z,1.95
2022-07-29T12:44:48.424Z,1.80
2022-07-29T12:47:18.995Z,1.77
2022-07-29T12:49:47.657Z,2.20
2022-07-29T12:52:30.509Z,2.47
2022-07-29T12:54:59.066Z,2.30
2022-07-29T12:57:27.218Z,2.10
2022-07-29T13:00:08.717Z,2.40
2022-07-29T13:02:38.531Z,2.40
2022-07-29T13:05:09.154Z,1.92
2022-07-29T13:07:55.148Z,2.20
2022-07-29T13:10:25.775Z,2.03
2022-07-29T13:13:09.011Z,2.05
2022-07-29T13:15:37.815Z,2.35
2022-07-29T13:18:27.441Z,2.17
2022-07-29T13:20:55.392Z,2.28
2022-07-29T13:23:23.557Z,2.20
2022-07-29T13:25:51.546Z,2.72
2022-07-29T13:28:19.992Z,2.42
2022-07-29T13:30:47.852Z,2.20
2022-07-29T13:33:17.248Z,2.17
2022-07-29T13:35:45.084Z,1.65
2022-07-29T13:38:12.984Z,2.03
2022-07-29T13:40:40.894Z,1.85
2022-07-29T13:43:11.400Z,2.47
2022-07-29T13:45:39.695Z,1.90
2022-07-29T13:48:08.317Z,1.98
2022-07-29T13:50:37.850Z,1.80
2022-07-29T13:53:05.753Z,1.88
2022-07-29T13:55:33.588Z,1.77
2022-07-29T13:58:02.083Z,2.50
2022-07-29T14:00:32.255Z,2.10
2022-07-29T14:03:00.155Z,1.80
2022-07-29T14:05:28.413Z,2.10
2022-07-29T14:07:57.648Z,1.83
2022-07-29T14:10:25.544Z,1.65
2022-07-29T14:12:53.415Z,1.95
2022-07-29T14:15:21.229Z,2.30
2022-07-29T14:17:49.066Z,2.28
2022-07-29T14:20:17.521Z,1.92
2022-07-29T14:22:45.727Z,1.70
2022-07-29T14:25:15.795Z,1.80
2022-07-29T14:27:44.513Z,2.08
2022-07-29T14:30:13.061Z,1.90
2022-07-29T14:32:40.934Z,2.10
2022-07-29T14:35:09.878Z,2.05
2022-07-29T14:37:40.487Z,2.30
2022-07-29T14:40:10.170Z,2.63
2022-07-29T14:42:39.838Z,2.28
2022-07-29T14:45:09.928Z,2.55
2022-07-29T14:47:38.700Z,2.63
2022-07-29T14:50:08.147Z,2.30
2022-07-29T14:52:36.795Z,2.50
2022-07-29T14:55:06.085Z,2.90
2022-07-29T14:57:50.778Z,3.97
2022-07-29T15:00:19.243Z,3.35
2022-07-29T15:03:01.530Z,2.83
2022-07-29T15:05:30.664Z,3.00
2022-07-29T15:07:58.729Z,2.78
2022-07-29T15:10:27.151Z,3.10
2022-07-29T15:12:56.587Z,2.60
2022-07-29T15:15:24.727Z,2.78
2022-07-29T15:17:52.532Z,2.80
2022-07-29T15:20:20.465Z,3.03
2022-07-29T15:22:48.299Z,2.83
2022-07-29T15:25:16.175Z,2.90
2022-07-29T15:27:49.030Z,3.85
2022-07-29T15:30:30.974Z,3.08
2022-07-29T15:33:02.754Z,2.75
2022-07-29T15:35:31.237Z,3.05
2022-07-29T15:37:59.059Z,2.90
2022-07-29T15:40:26.884Z,2.63
2022-07-29T15:42:54.733Z,3.45
2022-07-29T15:45:24.016Z,4.60
2022-07-29T15:47:51.895Z,3.50
2022-07-29T15:50:21.009Z,3.35
2022-07-29T15:52:48.824Z,2.97
2022-07-29T15:55:16.703Z,3.17
2022-07-29T15:57:44.542Z,2.80
2022-07-29T16:00:13.666Z,2.80
2022-07-29T16:02:42.894Z,2.38
2022-07-29T16:05:10.900Z,2.53
2022-07-29T16:07:38.886Z,2.33
2022-07-29T16:10:07.879Z,2.70
2022-07-29T16:12:35.748Z,2.20
2022-07-29T16:15:07.722Z,2.42
2022-07-29T16:17:37.948Z,2.20
2022-07-29T16:20:08.687Z,2.90
2022-07-29T16:22:36.784Z,2.38
2022-07-29T16:25:04.978Z,2.50
2022-07-29T16:27:37.882Z,2.80
2022-07-29T16:30:08.150Z,2.58
2022-07-29T16:32:35.998Z,1.98
2022-07-29T16:35:05.242Z,2.38
2022-07-29T16:37:36.476Z,2.40
2022-07-29T16:40:06.095Z,2.38
2022-07-29T16:42:46.588Z,2.42
2022-07-29T16:45:15.732Z,2.47
2022-07-29T16:47:43.973Z,2.35
2022-07-29T16:50:11.821Z,2.78
2022-07-29T16:52:41.203Z,2.20
2022-07-29T16:55:09.493Z,3.58
2022-07-29T16:57:37.278Z,4.30
2022-07-29T17:00:06.519Z,3.80
2022-07-29T17:02:34.396Z,3.17
2022-07-29T17:05:02.726Z,2.72
2022-07-29T17:07:30.800Z,2.67
2022-07-29T17:10:03.757Z,2.40
2022-07-29T17:12:32.397Z,2.25
2022-07-29T17:15:00.251Z,2.45
2022-07-29T17:17:38.622Z,2.40
2022-07-29T17:20:08.943Z,2.05
2022-07-29T17:22:36.774Z,2.30
2022-07-29T17:25:06.985Z,2.40
2022-07-29T17:27:35.779Z,2.50
2022-07-29T17:30:05.679Z,3.60
2022-07-29T17:32:36.421Z,3.15
2022-07-29T17:35:24.598Z,3.95
2022-07-29T17:37:52.520Z,3.08
2022-07-29T17:40:21.840Z,3.08
2022-07-29T17:42:49.872Z,3.10
2022-07-29T17:45:17.915Z,2.95
2022-07-29T17:47:45.677Z,3.00
2022-07-29T17:50:13.576Z,3.08
2022-07-29T17:52:41.639Z,2.83
2022-07-29T17:55:10.615Z,3.90
2022-07-29T17:57:39.796Z,3.95
2022-07-29T18:00:08.897Z,3.20
2022-07-29T18:02:37.705Z,4.07
2022-07-29T18:05:06.583Z,3.28
2022-07-29T18:07:34.453Z,2.83
2022-07-29T18:10:02.388Z,2.63
2022-07-29T18:12:30.445Z,2.70
2022-07-29T18:14:59.628Z,2.42
2022-07-29T18:17:49.426Z,2.85
2022-07-29T18:20:15.880Z,2.50
2022-07-29T18:22:43.750Z,2.47
2022-07-29T18:25:11.871Z,3.45
2022-07-29T18:27:39.670Z,2.63
2022-07-29T18:30:10.262Z,2.55
2022-07-29T18:32:38.142Z,2.55
2022-07-29T18:35:06.661Z,2.50
2022-07-29T18:38:02.282Z,2.45
2022-07-29T18:40:25.668Z,2.45
2022-07-29T18:42:53.570Z,2.20
2022-07-29T18:45:22.954Z,3.67
2022-07-29T18:47:56.624Z,3.08
2022-07-29T18:50:29.169Z,2.20
2022-07-29T18:52:58.673Z,2.75
2022-07-29T18:55:27.708Z,2.33
2022-07-29T18:57:57.164Z,2.35
2022-07-29T19:00:27.639Z,2.10
2022-07-29T19:02:56.058Z,2.50
2022-07-29T19:05:25.038Z,2.47
2022-07-29T19:07:54.698Z,2.30
2022-07-29T19:10:22.671Z,2.58
2022-07-29T19:12:50.595Z,2.28
2022-07-29T19:15:20.343Z,2.08
2022-07-29T19:17:50.039Z,3.30
2022-07-29T19:20:17.861Z,2.90
2022-07-29T19:22:45.983Z,2.42
2022-07-29T19:25:15.261Z,2.60
2022-07-29T19:27:43.160Z,2.38
2022-07-29T19:30:11.647Z,2.35
2022-07-29T19:32:39.494Z,2.60
2022-07-29T19:35:26.884Z,2.40
2022-07-29T19:37:55.772Z,2.85
2022-07-29T19:40:23.999Z,2.40
2022-07-29T19:42:52.902Z,2.63
2022-07-29T19:45:21.484Z,2.58
2022-07-29T19:47:49.964Z,3.10
2022-07-29T19:50:19.285Z,2.70
2022-07-29T19:52:48.250Z,2.60
2022-07-29T19:55:16.276Z,2.40
2022-07-29T19:57:47.193Z,2.58
2022-07-29T20:00:16.268Z,2.60
2022-07-29T20:02:44.547Z,2.40
2022-07-29T20:05:12.870Z,2.80
2022-07-29T20:07:42.045Z,2.65
2022-07-29T20:10:11.249Z,2.45
2022-07-29T20:12:39.072Z,2.70
2022-07-29T20:15:09.245Z,2.67
2022-07-29T20:17:44.123Z,2.45
2022-07-29T20:20:12.370Z,2.70
2022-07-29T20:22:40.224Z,2.90
2022-07-29T20:25:11.806Z,2.72
2022-07-29T20:27:40.477Z,2.80
2022-07-29T20:30:13.156Z,2.60
2022-07-29T20:32:41.259Z,2.40
2022-07-29T20:35:09.944Z,2.88
2022-07-29T20:37:56.201Z,2.88
2022-07-29T20:40:26.510Z,2.80
2022-07-29T20:42:54.629Z,2.75
2022-07-29T20:45:23.395Z,2.75
2022-07-29T20:47:51.773Z,3.03
2022-07-29T20:50:23.921Z,3.00
2022-07-29T20:52:52.770Z,2.65
2022-07-29T20:55:21.464Z,2.70
2022-07-29T20:57:50.873Z,3.03
2022-07-29T21:00:19.027Z,2.97
2022-07-29T21:02:47.433Z,3.13
2022-07-29T21:05:15.836Z,2.95
2022-07-29T21:07:43.824Z,3.10
2022-07-29T21:10:12.180Z,2.70
2022-07-29T21:12:40.196Z,2.90
2022-07-29T21:15:13.510Z,3.10
2022-07-29T21:17:46.721Z,2.97
2022-07-29T21:20:15.211Z,3.50
2022-07-29T21:22:43.481Z,3.47
2022-07-29T21:25:11.752Z,4.10
2022-07-29T21:27:57.117Z,3.90
2022-07-29T21:30:26.328Z,4.30
2022-07-29T21:32:54.413Z,3.70
2022-07-29T21:36:01.719Z,3.50
2022-07-29T21:38:10.106Z,4.07
2022-07-29T21:40:38.085Z,4.32
2022-07-29T21:43:06.096Z,3.72
2022-07-29T21:45:35.575Z,3.90
2022-07-29T21:48:03.406Z,3.90
2022-07-29T21:50:31.220Z,3.60
2022-07-29T21:52:59.437Z,3.80
2022-07-29T21:55:27.656Z,5.57
2022-07-29T21:57:57.133Z,6.20
2022-07-29T22:00:25.843Z,8.65
2022-07-29T22:02:55.076Z,5.63
2022-07-29T22:05:22.959Z,5.10
2022-07-29T22:07:55.442Z,4.30
2022-07-29T22:10:27.289Z,3.80
2022-07-29T22:12:57.710Z,3.25
2022-07-29T22:15:26.347Z,3.22
2022-07-29T22:17:55.551Z,3.55
2022-07-29T22:20:23.772Z,3.30
2022-07-29T22:22:51.623Z,3.20
2022-07-29T22:25:20.191Z,3.42
2022-07-29T22:27:48.071Z,3.25
2022-07-29T22:30:17.369Z,3.70
2022-07-29T22:32:45.762Z,3.40
2022-07-29T22:35:15.037Z,3.33
2022-07-29T22:37:43.220Z,3.22
2022-07-29T22:40:11.694Z,3.35
2022-07-29T22:42:40.835Z,3.35
2022-07-29T22:45:10.363Z,3.20
2022-07-29T22:47:45.870Z,3.30
2022-07-29T22:50:17.489Z,3.25
2022-07-29T22:52:45.891Z,3.40
2022-07-29T22:55:14.010Z,3.72
2022-07-29T22:57:42.163Z,3.53
2022-07-29T23:00:11.315Z,4.00
2022-07-29T23:02:40.300Z,3.80
2022-07-29T23:05:10.223Z,3.80
2022-07-29T23:07:39.553Z,3.30
2022-07-29T23:10:08.068Z,3.72
2022-07-29T23:12:35.976Z,3.55
2022-07-29T23:15:04.557Z,3.45
2022-07-29T23:17:36.090Z,3.60
2022-07-29T23:20:07.826Z,3.53
2022-07-29T23:22:35.898Z,3.70
2022-07-29T23:25:06.167Z,3.72
2022-07-29T23:27:34.043Z,4.25
2022-07-29T23:30:02.382Z,3.90
2022-07-29T23:32:30.277Z,3.83
2022-07-29T23:34:58.238Z,4.10
2022-07-29T23:37:26.926Z,3.63
2022-07-29T23:39:55.173Z,3.67
2022-07-29T23:42:24.403Z,4.00
2022-07-29T23:44:52.269Z,3.50
2022-07-29T23:47:20.105Z,3.47
2022-07-29T23:49:49.874Z,3.45
2022-07-29T23:52:18.208Z,3.35
2022-07-29T23:54:46.062Z,3.58
2022-07-29T23:57:14.339Z,3.50
2022-07-29T23:59:43.483Z,3.40
